Palacios, TX

9:11 PM CDT on September 23, 2014 (GMT -0500)
Port Lavaca | Change Station
CLOSE
Current Station
Airport
Location: Port Lavaca,
Elevation: 30 ft
Nearby Weather Stations

Elev 30 ft 28.65 °N, 96.68 °W | Updated 16 minutes ago

Clear
Clear
74 °F
Feels Like 74 °F
N
8
Wind Variable Wind from East

Today
High -- | Low -- °F
--% Chance of Precip.
Yesterday
High -- | Low -- °F
Precip. -- in
7:13 AM 7:20 PM
Waning Crescent, 0% visible
Pressure 30.03 in
Visibility 10.0 miles
Clouds Clear
Dew Point 63 °F
Humidity 70%
Rainfall 1.34 in
Snow Depth Not available.
UV 0 out of 12
Pollen 9.40 out of 12
Air Quality Not available.
Flu Activity Not available.
METAR KPKV 240155Z AUTO 08007KT 10SM CLR 23/17 A3003 RMK AO2 T02310173

More Conditions Fewer Conditions

Pressure 30.03 in
Visibility 10.0 miles
Clouds Clear
Dew Point 63 °F
Humidity 70%
Rainfall 1.34 in
Snow Depth Not available.
UV 0 out of 12
Pollen 9.40 out of 12
Air Quality Not available.
Flu Activity Not available.
METAR KPKV 240155Z AUTO 08007KT 10SM CLR 23/17 A3003 RMK AO2 T02310173

More Conditions Fewer Conditions

10-Day Weather Forecast

Almanac

Astronomy

Sep. 23, 2014 Rise Set
Actual Time 7:13 AM CDT 7:20 PM CDT
Civil Twilight 6:50 AM CDT 7:43 PM CDT
Nautical Twilight 6:22 AM CDT 8:11 PM CDT
Astronomical Twilight 5:55 AM CDT 8:38 PM CDT
Moon 6:39 AM CDT (9/23) 7:00 PM CDT (9/23)
Length of Visible Light 12h 53m
Length of Day
12h 06m
Tomorrow will be 1m 42s shorter.
Waning Crescent, 0% of the Moon is Illuminated
Today
Waning Crescent
Sep 24
New
Oct 1
First Quarter
Oct 8
Full
Oct 15
Last Quarter

Today's Extremes

State Highs State Lows

Community

WunderPhotos

Upload Photos

1,755,853 photos uploaded!

Nearby

Snow Depth

Station Depth Elevation
No new snow has been reported.

Earthquake Activity

City Distance Mag. Time & Date
No recent earthquake activity has been reported nearby.
Minimum magnitude displayed is 2.5.

Coastal Water Temperatures

Place Temperature
Seadrift, TX 84.9 °F
Rockport, TX 84.0 °F
USCG Freeport, TX 82.9 °F

Nearby Weather Stations